createdAt,value
2019-05-25T00:00:08.866Z,15.60
2019-05-25T00:02:37.321Z,15.60
2019-05-25T00:05:07.667Z,15.60
2019-05-25T00:07:36.267Z,15.60
2019-05-25T00:10:07.221Z,15.50
2019-05-25T00:12:35.730Z,15.50
2019-05-25T00:15:06.684Z,15.50
2019-05-25T00:17:35.150Z,15.40
2019-05-25T00:20:04.667Z,15.40
2019-05-25T00:22:33.197Z,15.40
2019-05-25T00:25:01.674Z,15.30
2019-05-25T00:27:30.127Z,15.30
2019-05-25T00:29:58.593Z,15.20
2019-05-25T00:32:27.187Z,15.20
2019-05-25T00:34:55.720Z,15.10
2019-05-25T00:37:24.229Z,15.00
2019-05-25T00:39:52.682Z,15.00
2019-05-25T00:42:21.214Z,14.90
2019-05-25T00:44:49.706Z,14.80
2019-05-25T00:47:18.161Z,14.70
2019-05-25T00:49:46.613Z,14.60
2019-05-25T00:52:15.228Z,14.60
2019-05-25T00:54:43.765Z,14.50
2019-05-25T00:57:12.321Z,14.40
2019-05-25T00:59:40.791Z,14.30
2019-05-25T01:02:09.314Z,14.20
2019-05-25T01:04:37.943Z,14.20
2019-05-25T01:07:06.414Z,14.10
2019-05-25T01:09:34.934Z,14.10
2019-05-25T01:12:03.415Z,14.00
2019-05-25T01:14:31.933Z,13.90
2019-05-25T01:17:00.397Z,13.80
2019-05-25T01:19:28.872Z,13.70
2019-05-25T01:21:57.361Z,13.60
2019-05-25T01:24:25.814Z,13.60
2019-05-25T01:26:54.292Z,13.50
2019-05-25T01:29:22.866Z,13.50
2019-05-25T01:31:51.382Z,13.40
2019-05-25T01:34:19.860Z,13.30
2019-05-25T01:36:48.390Z,13.30
2019-05-25T01:39:16.857Z,13.30
2019-05-25T01:41:45.411Z,13.20
2019-05-25T01:44:13.943Z,13.10
2019-05-25T01:46:42.508Z,13.10
2019-05-25T01:49:10.964Z,13.00
2019-05-25T01:51:39.422Z,13.00
2019-05-25T01:54:07.918Z,13.00
2019-05-25T01:56:36.379Z,12.90
2019-05-25T01:59:04.910Z,12.90
2019-05-25T02:01:33.405Z,12.80
2019-05-25T02:04:01.939Z,12.80
2019-05-25T02:06:30.402Z,12.80
2019-05-25T02:08:58.943Z,12.70
2019-05-25T02:11:27.465Z,12.70
2019-05-25T02:13:55.988Z,12.70
2019-05-25T02:16:24.439Z,12.70
2019-05-25T02:18:52.934Z,12.70
2019-05-25T02:21:21.407Z,12.60
2019-05-25T02:23:49.944Z,12.60
2019-05-25T02:26:18.432Z,12.50
2019-05-25T02:28:46.896Z,12.50
2019-05-25T02:31:15.443Z,12.40
2019-05-25T02:33:43.904Z,12.40
2019-05-25T02:36:12.366Z,12.30
2019-05-25T02:38:40.830Z,12.30
2019-05-25T02:41:09.291Z,12.30
2019-05-25T02:43:37.835Z,12.30
2019-05-25T02:46:06.381Z,12.20
2019-05-25T02:48:34.917Z,12.20
2019-05-25T02:51:03.481Z,12.10
2019-05-25T02:53:31.943Z,12.10
2019-05-25T02:56:00.480Z,12.10
2019-05-25T02:58:28.974Z,12.00
2019-05-25T03:00:58.076Z,12.00
2019-05-25T03:03:26.610Z,12.00
2019-05-25T03:05:56.708Z,11.90
2019-05-25T03:08:25.443Z,11.90
2019-05-25T03:10:55.223Z,12.00
2019-05-25T03:13:23.840Z,11.90
2019-05-25T03:15:52.312Z,11.90
2019-05-25T03:18:20.841Z,11.90
2019-05-25T03:20:49.309Z,11.90
2019-05-25T03:23:17.766Z,11.90
2019-05-25T03:25:49.666Z,11.90
2019-05-25T03:28:16.442Z,11.90
2019-05-25T03:30:44.898Z,11.90
2019-05-25T03:33:13.374Z,11.90
2019-05-25T03:35:41.949Z,11.90
2019-05-25T03:38:10.420Z,11.90
2019-05-25T03:40:38.951Z,11.90
2019-05-25T03:43:07.431Z,11.90
2019-05-25T03:45:36.043Z,11.90
2019-05-25T03:48:04.728Z,11.90
2019-05-25T03:50:33.293Z,12.00
2019-05-25T03:53:01.815Z,12.00
2019-05-25T03:55:30.343Z,12.00
2019-05-25T03:57:59.468Z,12.00
2019-05-25T04:00:36.598Z,12.00
2019-05-25T04:03:06.307Z,12.10
2019-05-25T04:05:34.902Z,12.10
2019-05-25T04:08:03.378Z,12.10
2019-05-25T04:10:31.944Z,12.20
2019-05-25T04:13:00.406Z,12.20
2019-05-25T04:15:28.879Z,12.30
2019-05-25T04:17:57.352Z,12.40
2019-05-25T04:20:25.882Z,12.50
2019-05-25T04:22:54.350Z,12.50
2019-05-25T04:25:22.811Z,12.60
2019-05-25T04:27:51.326Z,12.70
2019-05-25T04:30:20.200Z,12.70
2019-05-25T04:32:48.648Z,12.80
2019-05-25T04:35:17.177Z,12.90
2019-05-25T04:37:45.646Z,13.00
2019-05-25T04:40:14.177Z,13.10
2019-05-25T04:42:42.642Z,13.10
2019-05-25T04:45:11.715Z,13.20
2019-05-25T04:47:40.190Z,13.30
2019-05-25T04:50:09.335Z,13.40
2019-05-25T04:52:41.129Z,13.50
2019-05-25T04:55:08.725Z,13.60
2019-05-25T04:57:37.246Z,13.70
2019-05-25T05:00:06.461Z,13.80
2019-05-25T05:02:35.006Z,13.90
2019-05-25T05:05:04.671Z,14.00
2019-05-25T05:07:33.485Z,14.10
2019-05-25T05:10:03.337Z,14.20
2019-05-25T05:12:32.313Z,14.30
2019-05-25T05:15:00.839Z,14.30
2019-05-25T05:17:29.306Z,14.40
2019-05-25T05:19:57.763Z,14.50
2019-05-25T05:22:26.233Z,14.60
2019-05-25T05:24:54.773Z,14.70
2019-05-25T05:27:23.235Z,14.80
2019-05-25T05:29:51.699Z,14.90
2019-05-25T05:32:27.636Z,15.00
2019-05-25T05:34:50.794Z,15.10
2019-05-25T05:37:20.090Z,15.20
2019-05-25T05:39:49.607Z,15.30
2019-05-25T05:42:21.406Z,15.40
2019-05-25T05:44:50.002Z,15.50
2019-05-25T05:47:20.039Z,15.60
2019-05-25T05:49:50.240Z,15.70
2019-05-25T05:52:20.307Z,15.80
2019-05-25T05:54:50.971Z,15.90
2019-05-25T05:57:19.432Z,16.00
2019-05-25T05:59:47.934Z,16.10
2019-05-25T06:02:16.505Z,16.20
2019-05-25T06:04:45.031Z,16.40
2019-05-25T06:07:13.521Z,16.40
2019-05-25T06:09:42.055Z,16.50
2019-05-25T06:12:10.577Z,16.60
2019-05-25T06:14:39.132Z,16.70
2019-05-25T06:17:07.659Z,16.80
2019-05-25T06:19:36.109Z,16.80
2019-05-25T06:22:04.567Z,16.90
2019-05-25T06:24:33.027Z,17.00
2019-05-25T06:27:01.496Z,17.00
2019-05-25T06:29:30.029Z,17.10
2019-05-25T06:31:58.605Z,17.20
2019-05-25T06:34:27.127Z,17.30
2019-05-25T06:36:55.576Z,17.30
2019-05-25T06:39:24.061Z,17.40
2019-05-25T06:41:52.523Z,17.50
2019-05-25T06:44:21.042Z,17.60
2019-05-25T06:46:49.521Z,17.70
2019-05-25T06:49:18.038Z,17.70
2019-05-25T06:51:46.509Z,17.80
2019-05-25T06:54:14.971Z,17.90
2019-05-25T06:56:43.466Z,18.00
2019-05-25T06:59:11.923Z,18.10
2019-05-25T07:01:40.447Z,18.10
2019-05-25T07:04:08.894Z,18.20
2019-05-25T07:06:37.359Z,18.30
2019-05-25T07:09:07.278Z,18.40
2019-05-25T07:11:35.741Z,18.40
2019-05-25T07:14:04.344Z,18.50
2019-05-25T07:16:32.882Z,18.50
2019-05-25T07:19:01.328Z,18.60
2019-05-25T07:21:29.954Z,18.70
2019-05-25T07:23:58.478Z,18.80
2019-05-25T07:26:26.931Z,18.90
2019-05-25T07:28:55.397Z,19.00
2019-05-25T07:31:23.910Z,19.10
2019-05-25T07:33:52.366Z,19.20
2019-05-25T07:36:20.821Z,19.20
2019-05-25T07:38:49.347Z,19.30
2019-05-25T07:41:17.799Z,19.30
2019-05-25T07:43:46.274Z,19.40
2019-05-25T07:46:17.064Z,19.50
2019-05-25T07:48:44.943Z,19.60
2019-05-25T07:51:13.392Z,19.60
2019-05-25T07:53:41.857Z,19.70
2019-05-25T07:56:10.379Z,19.70
2019-05-25T07:58:38.843Z,19.80
2019-05-25T08:01:07.308Z,19.90
2019-05-25T08:03:39.167Z,20.00
2019-05-25T08:06:06.041Z,20.10
2019-05-25T08:08:34.507Z,20.10
2019-05-25T08:11:03.029Z,20.30
2019-05-25T08:13:31.587Z,20.30
2019-05-25T08:16:00.047Z,20.30
2019-05-25T08:18:28.501Z,20.40
2019-05-25T08:20:57.063Z,20.50
2019-05-25T08:23:25.585Z,20.60
2019-05-25T08:25:54.120Z,20.70
2019-05-25T08:28:32.115Z,20.70
2019-05-25T08:30:53.096Z,20.80
2019-05-25T08:33:21.839Z,20.80
2019-05-25T08:35:50.298Z,20.90
2019-05-25T08:38:18.779Z,20.90
2019-05-25T08:40:47.245Z,20.90
2019-05-25T08:43:15.776Z,21.00
2019-05-25T08:45:44.236Z,21.10
2019-05-25T08:48:12.766Z,21.20
2019-05-25T08:50:41.315Z,21.20
2019-05-25T08:53:09.784Z,21.20
2019-05-25T08:55:38.326Z,21.30
2019-05-25T08:58:06.862Z,21.30
2019-05-25T09:00:35.319Z,21.40
2019-05-25T09:03:03.988Z,21.40
2019-05-25T09:05:32.457Z,21.50
2019-05-25T09:08:00.918Z,21.60
2019-05-25T09:10:29.375Z,21.60
2019-05-25T09:12:57.826Z,21.70
2019-05-25T09:15:26.277Z,21.70
2019-05-25T09:17:54.786Z,21.70
2019-05-25T09:20:23.330Z,21.70
2019-05-25T09:22:51.781Z,21.70
2019-05-25T09:25:20.411Z,21.60
2019-05-25T09:27:48.863Z,21.60
2019-05-25T09:30:17.651Z,21.70
2019-05-25T09:32:46.111Z,21.70
2019-05-25T09:35:14.803Z,21.70
2019-05-25T09:37:43.326Z,21.80
2019-05-25T09:40:12.438Z,21.80
2019-05-25T09:42:41.026Z,21.90
2019-05-25T09:45:13.390Z,22.00
2019-05-25T09:47:40.116Z,22.10
2019-05-25T09:50:09.280Z,22.20
2019-05-25T09:52:37.845Z,22.30
2019-05-25T09:55:08.499Z,22.40
2019-05-25T09:57:37.020Z,22.40
2019-05-25T10:00:08.578Z,22.50
2019-05-25T10:02:37.035Z,22.50
2019-05-25T10:05:09.072Z,22.50
2019-05-25T10:07:37.527Z,22.50
2019-05-25T10:10:10.202Z,22.50
2019-05-25T10:12:38.699Z,22.50
2019-05-25T10:15:07.684Z,22.50
2019-05-25T10:17:36.160Z,22.50
2019-05-25T10:20:07.653Z,22.60
2019-05-25T10:22:36.115Z,22.60
2019-05-25T10:25:06.885Z,22.60
2019-05-25T10:27:35.428Z,22.70
2019-05-25T10:30:07.300Z,22.80
2019-05-25T10:32:35.761Z,22.80
2019-05-25T10:35:06.852Z,22.80
2019-05-25T10:37:35.419Z,22.70
2019-05-25T10:40:06.104Z,22.80
2019-05-25T10:42:34.555Z,22.80
2019-05-25T10:45:04.302Z,23.00
2019-05-25T10:47:33.045Z,23.00
2019-05-25T10:50:01.508Z,23.10
2019-05-25T10:52:29.974Z,23.20
2019-05-25T10:54:58.528Z,23.30
2019-05-25T10:57:27.054Z,23.30
2019-05-25T10:59:55.510Z,23.40
2019-05-25T11:02:24.027Z,23.50
2019-05-25T11:04:52.535Z,23.60
2019-05-25T11:07:21.042Z,23.60
2019-05-25T11:09:49.512Z,23.50
2019-05-25T11:12:17.984Z,23.50
2019-05-25T11:14:46.439Z,23.50
2019-05-25T11:17:14.901Z,23.60
2019-05-25T11:19:43.450Z,23.80
2019-05-25T11:22:11.897Z,24.00
2019-05-25T11:24:43.230Z,24.10
2019-05-25T11:27:11.703Z,24.10
2019-05-25T11:29:40.154Z,24.30
2019-05-25T11:32:08.718Z,24.30
2019-05-25T11:34:37.266Z,24.40
2019-05-25T11:37:05.718Z,24.60
2019-05-25T11:39:34.185Z,24.70
2019-05-25T11:42:02.720Z,24.90
2019-05-25T11:44:31.256Z,25.00
2019-05-25T11:46:59.710Z,25.20
2019-05-25T11:49:28.155Z,25.50
2019-05-25T11:51:56.641Z,25.50
2019-05-25T11:54:25.099Z,25.40
2019-05-25T11:56:53.997Z,25.30
2019-05-25T11:59:22.532Z,25.50
2019-05-25T12:01:50.996Z,26.40
2019-05-25T12:04:19.482Z,27.80
2019-05-25T12:06:47.936Z,29.30
2019-05-25T12:09:16.387Z,30.70
2019-05-25T12:11:44.893Z,31.50
2019-05-25T12:14:13.423Z,32.30
2019-05-25T12:16:41.871Z,32.80
2019-05-25T12:19:10.431Z,33.10
2019-05-25T12:21:38.904Z,33.30
2019-05-25T12:24:07.424Z,33.40
2019-05-25T12:26:55.255Z,33.70
2019-05-25T12:29:23.710Z,33.90
2019-05-25T12:32:03.438Z,34.40
2019-05-25T12:34:22.442Z,34.20
2019-05-25T12:36:50.915Z,33.70
2019-05-25T12:39:19.375Z,33.30
2019-05-25T12:41:47.832Z,33.20
2019-05-25T12:44:16.412Z,33.20
2019-05-25T12:46:44.867Z,33.00
2019-05-25T12:49:13.408Z,33.00
2019-05-25T12:51:41.987Z,32.90
2019-05-25T12:54:10.504Z,32.90
2019-05-25T12:56:39.043Z,32.80
2019-05-25T12:59:26.998Z,32.70
2019-05-25T13:01:55.461Z,32.60
2019-05-25T13:04:23.982Z,32.40
2019-05-25T13:07:11.814Z,31.50
2019-05-25T13:09:40.285Z,30.80
2019-05-25T13:12:08.729Z,30.50
2019-05-25T13:14:56.536Z,30.40
2019-05-25T13:17:24.994Z,30.60
2019-05-25T13:19:53.477Z,30.80
2019-05-25T13:22:21.948Z,30.70
2019-05-25T13:24:50.430Z,30.60
2019-05-25T13:27:18.958Z,30.60
2019-05-25T13:29:47.418Z,30.50
2019-05-25T13:32:15.886Z,30.30
2019-05-25T13:34:44.868Z,30.30
2019-05-25T13:37:13.490Z,30.60
2019-05-25T13:39:41.963Z,30.70
2019-05-25T13:42:10.438Z,30.90
2019-05-25T13:44:38.920Z,31.00
2019-05-25T13:47:07.449Z,31.00
2019-05-25T13:49:35.911Z,30.70
2019-05-25T13:52:04.520Z,30.30
2019-05-25T13:54:33.054Z,30.20
2019-05-25T13:57:01.582Z,30.40
2019-05-25T13:59:30.120Z,30.60
2019-05-25T14:01:58.655Z,30.60
2019-05-25T14:04:27.111Z,30.40
2019-05-25T14:06:55.595Z,30.20
2019-05-25T14:09:24.050Z,30.20
2019-05-25T14:11:52.578Z,30.30
2019-05-25T14:14:24.225Z,30.30
2019-05-25T14:16:51.230Z,30.50
2019-05-25T14:19:19.714Z,30.30
2019-05-25T14:21:48.184Z,30.10
2019-05-25T14:24:16.725Z,29.80
2019-05-25T14:26:45.187Z,29.50
2019-05-25T14:29:13.675Z,29.00
2019-05-25T14:31:45.834Z,28.60
2019-05-25T14:34:12.440Z,28.30
2019-05-25T14:36:40.907Z,28.20
2019-05-25T14:39:09.470Z,27.90
2019-05-25T14:41:38.008Z,27.60
2019-05-25T14:44:06.535Z,27.20
2019-05-25T14:46:35.018Z,26.90
2019-05-25T14:49:03.744Z,26.70
2019-05-25T14:51:32.211Z,26.60
2019-05-25T14:54:00.743Z,26.70
2019-05-25T14:56:29.207Z,26.80
2019-05-25T14:58:57.657Z,26.90
2019-05-25T15:01:26.124Z,26.80
2019-05-25T15:03:54.681Z,26.90
2019-05-25T15:06:23.146Z,27.10
2019-05-25T15:08:51.607Z,26.80
2019-05-25T15:11:20.082Z,26.50
2019-05-25T15:13:48.564Z,26.30
2019-05-25T15:16:17.087Z,26.20
2019-05-25T15:18:45.549Z,26.10
2019-05-25T15:21:14.089Z,26.10
2019-05-25T15:23:42.624Z,26.00
2019-05-25T15:26:11.158Z,25.90
2019-05-25T15:28:39.718Z,25.80
2019-05-25T15:31:08.169Z,25.70
2019-05-25T15:33:36.615Z,25.60
2019-05-25T15:36:05.230Z,25.40
2019-05-25T15:38:33.694Z,25.30
2019-05-25T15:41:02.145Z,25.20
2019-05-25T15:43:30.639Z,25.20
2019-05-25T15:45:59.082Z,25.20
2019-05-25T15:48:27.543Z,25.30
2019-05-25T15:50:56.111Z,25.20
2019-05-25T15:53:24.677Z,25.10
2019-05-25T15:55:53.203Z,25.00
2019-05-25T15:58:21.764Z,25.00
2019-05-25T16:00:51.453Z,25.00
2019-05-25T16:03:21.140Z,24.80
2019-05-25T16:06:09.021Z,24.60
2019-05-25T16:08:37.952Z,24.60
2019-05-25T16:11:06.425Z,24.50
2019-05-25T16:13:34.950Z,24.40
2019-05-25T16:16:03.410Z,24.30
2019-05-25T16:18:31.858Z,24.30
2019-05-25T16:21:00.396Z,24.20
2019-05-25T16:23:28.875Z,24.10
2019-05-25T16:26:16.664Z,24.00
2019-05-25T16:28:45.241Z,23.90
2019-05-25T16:31:14.747Z,23.80
2019-05-25T16:33:43.198Z,23.70
2019-05-25T16:36:11.686Z,23.50
2019-05-25T16:38:40.146Z,23.30
2019-05-25T16:41:08.608Z,23.20
2019-05-25T16:43:37.167Z,23.10
2019-05-25T16:46:05.615Z,22.90
2019-05-25T16:48:34.088Z,22.80
2019-05-25T16:51:02.582Z,22.60
2019-05-25T16:53:31.075Z,22.50
2019-05-25T16:55:59.543Z,22.30
2019-05-25T16:58:28.083Z,22.20
2019-05-25T17:00:56.540Z,22.10
2019-05-25T17:03:28.740Z,22.00
2019-05-25T17:05:55.507Z,21.90
2019-05-25T17:08:24.041Z,21.70
2019-05-25T17:10:52.572Z,21.70
2019-05-25T17:13:21.213Z,21.60
2019-05-25T17:15:49.666Z,21.50
2019-05-25T17:18:18.383Z,21.40
2019-05-25T17:20:46.944Z,21.30
2019-05-25T17:23:15.461Z,21.20
2019-05-25T17:25:43.994Z,21.10
2019-05-25T17:28:12.555Z,21.00
2019-05-25T17:30:45.623Z,20.90
2019-05-25T17:33:14.941Z,20.80
2019-05-25T17:35:44.328Z,20.60
2019-05-25T17:38:12.923Z,20.60
2019-05-25T17:40:41.386Z,20.40
2019-05-25T17:43:09.924Z,20.40
2019-05-25T17:45:38.388Z,20.30
2019-05-25T17:48:07.202Z,20.20
2019-05-25T17:50:35.764Z,20.10
2019-05-25T17:53:04.746Z,20.00
2019-05-25T17:55:33.277Z,19.90
2019-05-25T17:58:01.757Z,19.70
2019-05-25T18:00:41.576Z,19.70
2019-05-25T18:03:10.616Z,19.50
2019-05-25T18:05:39.354Z,19.50
2019-05-25T18:08:08.555Z,19.40
2019-05-25T18:10:51.326Z,19.30
2019-05-25T18:13:07.585Z,19.20
2019-05-25T18:15:36.175Z,19.10
2019-05-25T18:18:07.314Z,19.00
2019-05-25T18:20:36.345Z,18.90
2019-05-25T18:23:05.474Z,18.80
2019-05-25T18:25:34.314Z,18.70
2019-05-25T18:28:02.990Z,18.60
2019-05-25T18:30:31.877Z,18.60
2019-05-25T18:33:00.460Z,18.50
2019-05-25T18:35:28.944Z,18.40
2019-05-25T18:37:57.480Z,18.30
2019-05-25T18:40:25.938Z,18.20
2019-05-25T18:42:54.407Z,18.10
2019-05-25T18:45:23.503Z,18.10
2019-05-25T18:48:11.521Z,18.00
2019-05-25T18:50:40.220Z,18.00
2019-05-25T18:53:08.669Z,17.80
2019-05-25T18:55:37.135Z,17.80
2019-05-25T18:58:05.662Z,17.70
2019-05-25T19:00:34.204Z,17.70
2019-05-25T19:03:02.768Z,17.70
2019-05-25T19:05:31.302Z,17.60
2019-05-25T19:07:59.830Z,17.60
2019-05-25T19:10:28.422Z,17.50
2019-05-25T19:12:56.890Z,17.40
2019-05-25T19:15:27.282Z,17.40
2019-05-25T19:17:55.730Z,17.30
2019-05-25T19:20:24.367Z,17.30
2019-05-25T19:22:52.858Z,17.20
2019-05-25T19:25:21.447Z,17.20
2019-05-25T19:27:49.995Z,17.10
2019-05-25T19:30:18.835Z,17.10
2019-05-25T19:32:47.300Z,17.10
2019-05-25T19:35:16.093Z,17.00
2019-05-25T19:37:44.632Z,17.00
2019-05-25T19:40:13.722Z,17.00
2019-05-25T19:42:42.283Z,16.90
2019-05-25T19:45:11.104Z,16.90
2019-05-25T19:47:39.658Z,16.80
2019-05-25T19:50:08.819Z,16.80
2019-05-25T19:52:37.351Z,16.80
2019-05-25T19:55:08.006Z,16.70
2019-05-25T19:57:36.724Z,16.70
2019-05-25T20:00:06.613Z,16.60
2019-05-25T20:02:35.162Z,16.60
2019-05-25T20:05:15.818Z,16.60
2019-05-25T20:07:36.908Z,16.50
2019-05-25T20:10:09.035Z,16.40
2019-05-25T20:12:37.618Z,16.40
2019-05-25T20:15:08.280Z,16.30
2019-05-25T20:17:37.048Z,16.30
2019-05-25T20:20:06.223Z,16.20
2019-05-25T20:22:34.757Z,16.20
2019-05-25T20:25:04.915Z,16.10
2019-05-25T20:27:33.542Z,16.10
2019-05-25T20:30:02.007Z,16.00
2019-05-25T20:32:30.498Z,16.00
2019-05-25T20:34:59.334Z,15.90
2019-05-25T20:37:27.792Z,15.90
2019-05-25T20:39:56.255Z,15.90
2019-05-25T20:42:24.790Z,15.80
2019-05-25T20:44:53.285Z,15.80
2019-05-25T20:47:21.742Z,15.70
2019-05-25T20:49:50.264Z,15.70
2019-05-25T20:52:18.755Z,15.60
2019-05-25T20:54:47.409Z,15.60
2019-05-25T20:57:15.876Z,15.60
2019-05-25T20:59:44.422Z,15.50
2019-05-25T21:02:12.959Z,15.50
2019-05-25T21:04:41.509Z,15.50
2019-05-25T21:07:09.948Z,15.40
2019-05-25T21:09:39.327Z,15.40
2019-05-25T21:12:07.787Z,15.30
2019-05-25T21:14:36.254Z,15.20
2019-05-25T21:17:07.670Z,15.20
2019-05-25T21:19:36.539Z,15.10
2019-05-25T21:22:05.087Z,15.10
2019-05-25T21:24:33.547Z,15.10
2019-05-25T21:27:02.123Z,15.00
2019-05-25T21:29:30.653Z,15.00
2019-05-25T21:31:59.112Z,14.90
2019-05-25T21:34:27.652Z,14.90
2019-05-25T21:36:56.109Z,14.80
2019-05-25T21:39:24.686Z,14.70
2019-05-25T21:41:53.149Z,14.70
2019-05-25T21:44:21.670Z,14.60
2019-05-25T21:46:50.153Z,14.50
2019-05-25T21:49:18.601Z,14.50
2019-05-25T21:51:48.068Z,14.40
2019-05-25T21:54:16.592Z,14.30
2019-05-25T21:56:45.062Z,14.20
2019-05-25T21:59:13.586Z,14.10
2019-05-25T22:01:42.106Z,14.00
2019-05-25T22:04:10.644Z,14.00
2019-05-25T22:06:39.243Z,13.90
2019-05-25T22:09:08.197Z,13.90
2019-05-25T22:11:37.199Z,13.80
2019-05-25T22:14:05.726Z,13.70
2019-05-25T22:16:34.197Z,13.70
2019-05-25T22:19:02.740Z,13.70
2019-05-25T22:21:31.341Z,13.60
2019-05-25T22:23:59.825Z,13.50
2019-05-25T22:26:28.316Z,13.50
2019-05-25T22:29:01.473Z,13.40
2019-05-25T22:31:29.935Z,13.30
2019-05-25T22:33:59.389Z,13.20
2019-05-25T22:36:39.634Z,13.20
2019-05-25T22:38:58.446Z,13.10
2019-05-25T22:41:26.905Z,13.10
2019-05-25T22:43:55.428Z,13.10
2019-05-25T22:46:23.899Z,13.00
2019-05-25T22:48:52.400Z,12.90
2019-05-25T22:51:20.967Z,12.90
2019-05-25T22:53:49.562Z,12.90
2019-05-25T22:56:18.086Z,12.80
2019-05-25T22:58:46.762Z,12.80
2019-05-25T23:01:15.303Z,12.70
2019-05-25T23:03:44.404Z,12.70
2019-05-25T23:06:12.927Z,12.70
2019-05-25T23:08:41.488Z,12.70
2019-05-25T23:11:09.955Z,12.70
2019-05-25T23:13:38.413Z,12.60
2019-05-25T23:16:06.967Z,12.60
2019-05-25T23:18:35.423Z,12.60
2019-05-25T23:21:03.886Z,12.50
2019-05-25T23:23:32.414Z,12.50
2019-05-25T23:26:00.871Z,12.60
2019-05-25T23:28:29.329Z,12.60
2019-05-25T23:30:57.813Z,12.60
2019-05-25T23:33:26.324Z,12.60
2019-05-25T23:35:54.900Z,12.60
2019-05-25T23:38:23.439Z,12.50
2019-05-25T23:40:51.900Z,12.50
2019-05-25T23:43:20.357Z,12.40
2019-05-25T23:45:48.808Z,12.30
2019-05-25T23:48:17.306Z,12.30
2019-05-25T23:50:45.762Z,12.20
2019-05-25T23:53:14.290Z,12.20
2019-05-25T23:55:42.826Z,12.10
2019-05-25T23:58:11.372Z,12.10
